Terminal Aerodrome Forecast
Issued by NWS

Current Version | Previous Version | Graphics & Text | Print | Product List | Glossary On
Versions: 1 2 3 4 5 6 7 8 9 10 11 12 13 14 15 16 17 18 19 20 21
000
FTUS41 KILN 290500
TAFLUK
TAF
KLUK 290530Z 2906/3006 21003KT P6SM FEW060 OVC090
     FM290700 00000KT 1SM BR SCT060 BKN220
     FM291300 34006KT P6SM SCT050
     FM300000 VRB03KT P6SM SKC=

USA.gov is the U.S. government's official web portal to all federal, state and local government web resources and services.